createdAt,value
2023-04-16T00:01:31.822Z,8.26
2023-04-16T00:06:51.464Z,8.27
2023-04-16T00:12:11.089Z,8.27
2023-04-16T00:17:29.941Z,8.22
2023-04-16T00:22:49.674Z,8.24
2023-04-16T00:28:10.991Z,8.22
2023-04-16T00:33:29.000Z,8.22
2023-04-16T00:38:47.959Z,8.2
2023-04-16T00:44:07.273Z,8.18
2023-04-16T00:54:46.203Z,8.18
2023-04-16T01:00:05.910Z,8.17
2023-04-16T01:05:25.397Z,8.18
2023-04-16T01:10:45.049Z,8.18
2023-04-16T01:16:04.621Z,8.16
2023-04-16T01:21:23.502Z,8.16
2023-04-16T01:26:43.034Z,8.17
2023-04-16T01:37:21.367Z,8.14
2023-04-16T01:48:00.414Z,8.13
2023-04-16T01:53:19.762Z,8.13
2023-04-16T02:03:58.212Z,8.13
2023-04-16T02:09:17.240Z,8.14
2023-04-16T02:14:36.273Z,8.14
2023-04-16T02:19:55.545Z,8.13
2023-04-16T02:25:14.708Z,8.14
2023-04-16T02:35:54.211Z,8.1
2023-04-16T02:41:13.770Z,8.1
2023-04-16T02:46:32.503Z,8.1
2023-04-16T02:51:52.311Z,8.1
2023-04-16T02:57:11.838Z,8.08
2023-04-16T03:02:31.001Z,8.13
2023-04-16T03:07:49.959Z,8.1
2023-04-16T03:18:28.407Z,8.08
2023-04-16T03:23:47.792Z,8.1
2023-04-16T03:29:07.413Z,8.1
2023-04-16T03:34:26.841Z,8.1
2023-04-16T03:39:46.094Z,8.1
2023-04-16T03:45:04.942Z,8.13
2023-04-16T03:50:23.941Z,8.08
2023-04-16T03:55:43.620Z,8.07
2023-04-16T04:01:02.934Z,8.06
2023-04-16T04:11:41.343Z,8.04
2023-04-16T04:17:00.184Z,8.06
2023-04-16T04:22:19.061Z,8.07
2023-04-16T04:27:38.217Z,8.04
2023-04-16T04:32:57.941Z,8.04
2023-04-16T04:38:17.230Z,8.03
2023-04-16T04:43:36.263Z,8.04
2023-04-16T04:48:55.990Z,8.04
2023-04-16T04:54:15.202Z,8.06
2023-04-16T04:59:34.636Z,8.04
2023-04-16T05:04:54.029Z,8.01
2023-04-16T05:10:12.794Z,8.04
2023-04-16T05:15:32.314Z,8.04
2023-04-16T05:20:51.588Z,8.06
2023-04-16T05:26:10.629Z,8.07
2023-04-16T05:31:30.155Z,8.08
2023-04-16T05:36:49.270Z,8.1
2023-04-16T05:42:08.966Z,8.1
2023-04-16T05:47:27.917Z,8.14
2023-04-16T05:52:46.823Z,8.17
2023-04-16T05:58:05.816Z,8.2
2023-04-16T06:08:44.738Z,8.24
2023-04-16T06:14:03.781Z,8.27
2023-04-16T06:24:42.311Z,8.28
2023-04-16T06:35:20.942Z,8.3
2023-04-16T06:40:40.283Z,8.28
2023-04-16T06:45:59.061Z,8.27
2023-04-16T06:51:18.518Z,8.28
2023-04-16T06:56:37.482Z,8.31
2023-04-16T07:01:56.650Z,8.34
2023-04-16T07:07:15.718Z,8.34
2023-04-16T07:17:53.588Z,8.43
2023-04-16T07:23:12.971Z,8.5
2023-04-16T07:28:32.009Z,8.6
2023-04-16T07:33:51.581Z,8.68
2023-04-16T07:39:10.433Z,8.78
2023-04-16T07:44:29.465Z,8.96
2023-04-16T07:49:49.053Z,9.02
2023-04-16T07:55:08.159Z,8.99
2023-04-16T08:00:27.304Z,9.01
2023-04-16T08:05:46.922Z,9.05
2023-04-16T08:11:05.742Z,9.09
2023-04-16T08:32:49.483Z,9.22
2023-04-16T08:38:06.488Z,9.29
2023-04-16T08:43:25.983Z,9.37
2023-04-16T08:48:44.949Z,9.47
2023-04-16T08:59:22.740Z,9.54
2023-04-16T09:04:41.897Z,9.5
2023-04-16T09:10:01.322Z,9.53
2023-04-16T09:15:20.233Z,9.56
2023-04-16T09:25:58.689Z,9.51
2023-04-16T09:31:18.022Z,9.53
2023-04-16T09:36:37.386Z,9.54
2023-04-16T09:41:56.868Z,9.63
2023-04-16T09:47:16.468Z,9.68
2023-04-16T09:52:35.997Z,9.76
2023-04-16T09:57:55.064Z,9.83
2023-04-16T10:03:14.026Z,9.83
2023-04-16T10:08:33.057Z,9.85
2023-04-16T10:13:52.209Z,9.89
2023-04-16T10:19:11.833Z,9.91
2023-04-16T10:24:31.025Z,9.87
2023-04-16T10:29:50.712Z,9.81
2023-04-16T10:35:09.900Z,9.8
2023-04-16T10:40:29.041Z,9.84
2023-04-16T10:45:48.231Z,9.89
2023-04-16T10:51:07.290Z,9.97
2023-04-16T10:56:26.413Z,10.04
2023-04-16T11:07:04.737Z,10.1
2023-04-16T11:12:24.316Z,10.2
2023-04-16T11:17:43.247Z,10.2
2023-04-16T11:23:02.484Z,10.3
2023-04-16T11:28:21.703Z,10.38
2023-04-16T11:38:59.593Z,10.55
2023-04-16T11:44:19.098Z,10.62
2023-04-16T11:49:38.247Z,10.65
2023-04-16T11:54:57.485Z,10.73
2023-04-16T12:00:16.609Z,10.76
2023-04-16T12:05:35.364Z,10.89
2023-04-16T12:10:54.836Z,10.99
2023-04-16T12:21:32.693Z,11.23
2023-04-16T12:26:52.268Z,11.37
2023-04-16T12:32:11.784Z,11.64
2023-04-16T12:37:30.651Z,11.75
2023-04-16T12:42:50.257Z,11.98
2023-04-16T12:48:09.489Z,11.99
2023-04-16T12:53:28.257Z,11.81
2023-04-16T12:58:47.799Z,11.77
2023-04-16T13:04:06.613Z,11.64
2023-04-16T13:09:25.517Z,11.66
2023-04-16T13:14:45.160Z,11.73
2023-04-16T13:20:03.442Z,11.9
2023-04-16T13:25:22.556Z,11.95
2023-04-16T13:30:41.884Z,11.91
2023-04-16T13:36:01.602Z,11.81
2023-04-16T13:41:20.548Z,11.71
2023-04-16T13:46:40.323Z,11.61
2023-04-16T13:51:59.640Z,11.51
2023-04-16T14:02:38.101Z,11.44
2023-04-16T14:07:56.979Z,11.4
2023-04-16T14:13:16.380Z,11.29
2023-04-16T14:18:35.598Z,11.22
2023-04-16T14:23:54.928Z,11.23
2023-04-16T14:29:14.526Z,11.3
2023-04-16T14:39:52.839Z,11.26
2023-04-16T14:45:11.931Z,11.23
2023-04-16T14:50:31.453Z,11.18
2023-04-16T14:55:50.637Z,11.12
2023-04-16T15:01:09.691Z,11.06
2023-04-16T15:06:29.171Z,11.15
2023-04-16T15:11:48.884Z,11.19
2023-04-16T15:22:27.275Z,11.18
2023-04-16T15:33:05.083Z,11.12
2023-04-16T15:38:24.453Z,11.08
2023-04-16T15:43:43.559Z,11.06
2023-04-16T15:49:02.846Z,11.03
2023-04-16T15:54:22.526Z,11
2023-04-16T15:59:43.537Z,10.93
2023-04-16T16:05:01.069Z,10.89
2023-04-16T16:10:20.213Z,10.82
2023-04-16T16:15:39.354Z,10.76
2023-04-16T16:20:58.440Z,10.73
2023-04-16T16:26:17.860Z,10.69
2023-04-16T16:31:37.428Z,10.68
2023-04-16T16:36:56.635Z,10.62
2023-04-16T16:42:16.097Z,10.59
2023-04-16T16:47:35.092Z,10.64
2023-04-16T16:52:54.804Z,10.68
2023-04-16T17:03:32.497Z,10.72
2023-04-16T17:14:10.148Z,10.62
2023-04-16T17:19:29.636Z,10.55
2023-04-16T17:24:49.214Z,10.51
2023-04-16T17:30:09.549Z,10.46
2023-04-16T17:35:31.066Z,10.4
2023-04-16T17:46:06.602Z,10.31
2023-04-16T17:56:44.164Z,10.21
2023-04-16T18:02:03.873Z,10.14
2023-04-16T18:07:22.683Z,10.05
2023-04-16T18:12:42.212Z,10.02
2023-04-16T18:18:01.173Z,9.93
2023-04-16T18:28:39.967Z,9.83
2023-04-16T18:33:58.915Z,9.79
2023-04-16T18:39:18.493Z,9.76
2023-04-16T18:44:38.132Z,9.71
2023-04-16T18:49:57.743Z,9.67
2023-04-16T18:55:17.411Z,9.6
2023-04-16T19:00:36.669Z,9.59
2023-04-16T19:11:15.517Z,9.56
2023-04-16T19:16:35.082Z,9.51
2023-04-16T19:27:13.724Z,9.42
2023-04-16T19:32:33.442Z,9.37
2023-04-16T19:37:52.620Z,9.35
2023-04-16T19:43:11.987Z,9.32
2023-04-16T19:48:31.266Z,9.3
2023-04-16T19:53:50.091Z,9.27
2023-04-16T19:59:09.814Z,9.29
2023-04-16T20:09:48.417Z,9.26
2023-04-16T20:20:27.010Z,9.25
2023-04-16T20:25:46.330Z,9.26
2023-04-16T20:31:05.827Z,9.22
2023-04-16T20:36:25.186Z,9.2
2023-04-16T20:41:43.933Z,9.16
2023-04-16T20:47:03.270Z,9.14
2023-04-16T20:52:22.354Z,9.12
2023-04-16T20:57:40.998Z,9.1
2023-04-16T21:02:59.828Z,9.08
2023-04-16T21:08:19.346Z,9.08
2023-04-16T21:13:38.959Z,9.05
2023-04-16T21:18:58.493Z,8.97
2023-04-16T21:24:17.417Z,8.99
2023-04-16T21:29:36.372Z,8.97
2023-04-16T21:34:55.396Z,8.93
2023-04-16T21:45:34.112Z,8.91
2023-04-16T21:50:52.843Z,8.95
2023-04-16T21:56:12.066Z,8.89
2023-04-16T22:01:30.789Z,8.89
2023-04-16T22:06:50.010Z,8.85
2023-04-16T22:12:09.565Z,8.85
2023-04-16T22:17:28.542Z,8.85
2023-04-16T22:28:06.665Z,8.82
2023-04-16T22:38:45.428Z,8.78
2023-04-16T22:44:05.349Z,8.79
2023-04-16T22:49:23.905Z,8.78
2023-04-16T22:54:42.820Z,8.76
2023-04-16T23:00:02.090Z,8.75
2023-04-16T23:10:39.800Z,8.68
2023-04-16T23:21:17.579Z,8.67
2023-04-16T23:26:36.805Z,8.67
2023-04-16T23:31:56.271Z,8.67
2023-04-16T23:37:15.165Z,8.64
2023-04-16T23:42:34.371Z,8.64
2023-04-16T23:48:02.353Z,8.62
2023-04-16T23:53:12.776Z,8.6
2023-04-16T23:58:32.342Z,8.6
